0424 UTC 19 January 2017 found at http://aviationweather.gov/adds/metars/
 
METAR text: KMNH 190416Z AUTO 26005KT 10SM CLR M03/M11 A2975 RMK AO2
Conditions at: KMNH (MONUMENT/ELBERT , CO, US) observed 0416 UTC 19 January 2017
Temperature: -3.0°C (27°F)
Dewpoint: -11.0°C (12°F) [RH = 54%]
Pressure (altimeter): 29.75 inches Hg (1007.5 mb)
Winds: from the W (260 degrees) at 6 MPH (5 knots; 2.6 m/s)
Visibility: 10 or more miles (16+ km)
Ceiling: at least 12,000 feet AGL
Clouds: sky clear below 12,000 feet AGL
Weather: automated observation with no human augmentation;
there may or may not be significant weather present at this time

METAR text: KMNH 190356Z AUTO 26005KT 10SM CLR M02/M11 A2975 RMK AO2
Conditions at: KMNH (MONUMENT/ELBERT , CO, US) observed 0356 UTC 19 January 2017
Temperature: -2.0°C (28°F)
Dewpoint: -11.0°C (12°F) [RH = 50%]
Pressure (altimeter): 29.75 inches Hg (1007.5 mb)
Winds: from the W (260 degrees) at 6 MPH (5 knots; 2.6 m/s)
Visibility: 10 or more miles (16+ km)
Ceiling: at least 12,000 feet AGL
Clouds: sky clear below 12,000 feet AGL
Weather: automated observation with no human augmentation;
there may or may not be significant weather present at this time

METAR text: KMNH 190335Z AUTO 26005KT 7SM CLR M01/M11 A2977 RMK AO2
Conditions at: KMNH (MONUMENT/ELBERT , CO, US) observed 0335 UTC 19 January 2017
Temperature: -1.0°C (30°F)
Dewpoint: -11.0°C (12°F) [RH = 47%]
Pressure (altimeter): 29.77 inches Hg (1008.2 mb)
Winds: from the W (260 degrees) at 6 MPH (5 knots; 2.6 m/s)
Visibility: 7 miles (11 km)
Ceiling: at least 12,000 feet AGL
Clouds: sky clear below 12,000 feet AGL
Weather: automated observation with no human augmentation;
there may or may not be significant weather present at this time

METAR text: KMNH 190316Z AUTO 24006KT 10SM CLR M02/M10 A2977 RMK AO2
Conditions at: KMNH (MONUMENT/ELBERT , CO, US) observed 0316 UTC 19 January 2017
Temperature: -2.0°C (28°F)
Dewpoint: -10.0°C (14°F) [RH = 54%]
Pressure (altimeter): 29.77 inches Hg (1008.2 mb)
Winds: from the WSW (240 degrees) at 7 MPH (6 knots; 3.1 m/s)
Visibility: 10 or more miles (16+ km)
Ceiling: at least 12,000 feet AGL
Clouds: sky clear below 12,000 feet AGL
Weather: automated observation with no human augmentation;
there may or may not be significant weather present at this time

METAR text: KMNH 190256Z AUTO 24006KT 7SM CLR M01/M09 A2977 RMK AO2
Conditions at: KMNH (MONUMENT/ELBERT , CO, US) observed 0256 UTC 19 January 2017
Temperature: -1.0°C (30°F)
Dewpoint: -9.0°C (16°F) [RH = 55%]
Pressure (altimeter): 29.77 inches Hg (1008.2 mb)
Winds: from the WSW (240 degrees) at 7 MPH (6 knots; 3.1 m/s)
Visibility: 7 miles (11 km)
Ceiling: at least 12,000 feet AGL
Clouds: sky clear below 12,000 feet AGL
Weather: automated observation with no human augmentation;
there may or may not be significant weather present at this time

METAR text: KMNH 190236Z AUTO 23007KT 10SM CLR 00/M09 A2977 RMK AO2
Conditions at: KMNH (MONUMENT/ELBERT , CO, US) observed 0236 UTC 19 January 2017
Temperature: 0.0°C (32°F)
Dewpoint: -9.0°C (16°F) [RH = 51%]
Pressure (altimeter): 29.77 inches Hg (1008.2 mb)
Winds: from the SW (230 degrees) at 8 MPH (7 knots; 3.6 m/s)
Visibility: 10 or more miles (16+ km)
Ceiling: at least 12,000 feet AGL
Clouds: sky clear below 12,000 feet AGL
Weather: automated observation with no human augmentation;
there may or may not be significant weather present at this time

METAR text: KMNH 190215Z AUTO 23008KT 10SM CLR 00/M08 A2978 RMK AO2
Conditions at: KMNH (MONUMENT/ELBERT , CO, US) observed 0215 UTC 19 January 2017
Temperature: 0.0°C (32°F)
Dewpoint: -8.0°C (18°F) [RH = 55%]
Pressure (altimeter): 29.78 inches Hg (1008.5 mb)
Winds: from the SW (230 degrees) at 9 MPH (8 knots; 4.2 m/s)
Visibility: 10 or more miles (16+ km)
Ceiling: at least 12,000 feet AGL
Clouds: sky clear below 12,000 feet AGL
Weather: automated observation with no human augmentation;
there may or may not be significant weather present at this time

METAR text: KMNH 190155Z AUTO 24010KT 10SM CLR M01/M08 A2979 RMK AO2
Conditions at: KMNH (MONUMENT/ELBERT , CO, US) observed 0155 UTC 19 January 2017
Temperature: -1.0°C (30°F)
Dewpoint: -8.0°C (18°F) [RH = 59%]
Pressure (altimeter): 29.79 inches Hg (1008.9 mb)
Winds: from the WSW (240 degrees) at 12 MPH (10 knots; 5.2 m/s)
Visibility: 10 or more miles (16+ km)
Ceiling: at least 12,000 feet AGL
Clouds: sky clear below 12,000 feet AGL
Weather: automated observation with no human augmentation;
there may or may not be significant weather present at this time

METAR text: KMNH 190136Z AUTO 24009KT 10SM CLR M02/M08 A2979 RMK AO2
Conditions at: KMNH (MONUMENT/ELBERT , CO, US) observed 0136 UTC 19 January 2017
Temperature: -2.0°C (28°F)
Dewpoint: -8.0°C (18°F) [RH = 63%]
Pressure (altimeter): 29.79 inches Hg (1008.9 mb)
Winds: from the WSW (240 degrees) at 10 MPH (9 knots; 4.7 m/s)
Visibility: 10 or more miles (16+ km)
Ceiling: at least 12,000 feet AGL
Clouds: sky clear below 12,000 feet AGL
Weather: automated observation with no human augmentation;
there may or may not be significant weather present at this time

METAR text: KMNH 190116Z AUTO 23010KT 10SM CLR 00/M08 A2980 RMK AO2
Conditions at: KMNH (MONUMENT/ELBERT , CO, US) observed 0116 UTC 19 January 2017
Temperature: 0.0°C (32°F)
Dewpoint: -8.0°C (18°F) [RH = 55%]
Pressure (altimeter): 29.80 inches Hg (1009.2 mb)
Winds: from the SW (230 degrees) at 12 MPH (10 knots; 5.2 m/s)
Visibility: 10 or more miles (16+ km)
Ceiling: at least 12,000 feet AGL
Clouds: sky clear below 12,000 feet AGL
Weather: automated observation with no human augmentation;
there may or may not be significant weather present at this time

METAR text: KMNH 190056Z AUTO 23009KT 10SM CLR 00/M08 A2980 RMK AO2
Conditions at: KMNH (MONUMENT/ELBERT , CO, US) observed 0056 UTC 19 January 2017
Temperature: 0.0°C (32°F)
Dewpoint: -8.0°C (18°F) [RH = 55%]
Pressure (altimeter): 29.80 inches Hg (1009.2 mb)
Winds: from the SW (230 degrees) at 10 MPH (9 knots; 4.7 m/s)
Visibility: 10 or more miles (16+ km)
Ceiling: at least 12,000 feet AGL
Clouds: sky clear below 12,000 feet AGL
Weather: automated observation with no human augmentation;
there may or may not be significant weather present at this time

METAR text: KMNH 190036Z AUTO 22009KT 10SM CLR 01/M09 A2980 RMK AO2
Conditions at: KMNH (MONUMENT/ELBERT , CO, US) observed 0036 UTC 19 January 2017
Temperature: 1.0°C (34°F)
Dewpoint: -9.0°C (16°F) [RH = 47%]
Pressure (altimeter): 29.80 inches Hg (1009.2 mb)
Winds: from the SW (220 degrees) at 10 MPH (9 knots; 4.7 m/s)
Visibility: 10 or more miles (16+ km)
Ceiling: at least 12,000 feet AGL
Clouds: sky clear below 12,000 feet AGL
Weather: automated observation with no human augmentation;
there may or may not be significant weather present at this time

METAR text: KMNH 190016Z AUTO 22006KT 10SM CLR 02/M09 A2981 RMK AO2
Conditions at: KMNH (MONUMENT/ELBERT , CO, US) observed 0016 UTC 19 January 2017
Temperature: 2.0°C (36°F)
Dewpoint: -9.0°C (16°F) [RH = 44%]
Pressure (altimeter): 29.81 inches Hg (1009.6 mb)
Winds: from the SW (220 degrees) at 7 MPH (6 knots; 3.1 m/s)
Visibility: 10 or more miles (16+ km)
Ceiling: at least 12,000 feet AGL
Clouds: sky clear below 12,000 feet AGL
Weather: automated observation with no human augmentation;
there may or may not be significant weather present at this time

METAR text: KMNH 182356Z AUTO 21004KT 10SM CLR 03/M08 A2981 RMK AO2
Conditions at: KMNH (MONUMENT/ELBERT , CO, US) observed 2356 UTC 18 January 2017
Temperature: 3.0°C (37°F)
Dewpoint: -8.0°C (18°F) [RH = 44%]
Pressure (altimeter): 29.81 inches Hg (1009.6 mb)
Winds: from the SSW (210 degrees) at 5 MPH (4 knots; 2.1 m/s)
Visibility: 10 or more miles (16+ km)
Ceiling: at least 12,000 feet AGL
Clouds: sky clear below 12,000 feet AGL
Weather: automated observation with no human augmentation;
there may or may not be significant weather present at this time

METAR text: KMNH 182336Z AUTO 20007KT 10SM CLR 03/M07 A2981 RMK AO2
Conditions at: KMNH (MONUMENT/ELBERT , CO, US) observed 2336 UTC 18 January 2017
Temperature: 3.0°C (37°F)
Dewpoint: -7.0°C (19°F) [RH = 48%]
Pressure (altimeter): 29.81 inches Hg (1009.6 mb)
Winds: from the SSW (200 degrees) at 8 MPH (7 knots; 3.6 m/s)
Visibility: 10 or more miles (16+ km)
Ceiling: at least 12,000 feet AGL
Clouds: sky clear below 12,000 feet AGL
Weather: automated observation with no human augmentation;
there may or may not be significant weather present at this time

METAR text: KMNH 182316Z AUTO 21006KT 10SM CLR 05/M08 A2982 RMK AO2
Conditions at: KMNH (MONUMENT/ELBERT , CO, US) observed 2316 UTC 18 January 2017
Temperature: 5.0°C (41°F)
Dewpoint: -8.0°C (18°F) [RH = 38%]
Pressure (altimeter): 29.82 inches Hg (1009.9 mb)
Winds: from the SSW (210 degrees) at 7 MPH (6 knots; 3.1 m/s)
Visibility: 10 or more miles (16+ km)
Ceiling: at least 12,000 feet AGL
Clouds: sky clear below 12,000 feet AGL
Weather: automated observation with no human augmentation;
there may or may not be significant weather present at this time

METAR text: KMNH 182256Z AUTO 19005KT 10SM CLR 06/M09 A2982 RMK AO2
Conditions at: KMNH (MONUMENT/ELBERT , CO, US) observed 2256 UTC 18 January 2017
Temperature: 6.0°C (43°F)
Dewpoint: -9.0°C (16°F) [RH = 33%]
Pressure (altimeter): 29.82 inches Hg (1009.9 mb)
Winds: from the S (190 degrees) at 6 MPH (5 knots; 2.6 m/s)
Visibility: 10 or more miles (16+ km)
Ceiling: at least 12,000 feet AGL
Clouds: sky clear below 12,000 feet AGL
Weather: automated observation with no human augmentation;
there may or may not be significant weather present at this time

METAR text: KMNH 182236Z AUTO 00000KT 10SM CLR 08/M13 A2982 RMK AO2
Conditions at: KMNH (MONUMENT/ELBERT , CO, US) observed 2236 UTC 18 January 2017
Temperature: 8.0°C (46°F)
Dewpoint: -13.0°C (9°F) [RH = 21%]
Pressure (altimeter): 29.82 inches Hg (1009.9 mb)
Winds: calm
Visibility: 10 or more miles (16+ km)
Ceiling: at least 12,000 feet AGL
Clouds: sky clear below 12,000 feet AGL
Weather: automated observation with no human augmentation;
there may or may not be significant weather present at this time

METAR text: KMNH 182216Z AUTO 18004KT 10SM CLR 08/M12 A2982 RMK AO2
Conditions at: KMNH (MONUMENT/ELBERT , CO, US) observed 2216 UTC 18 January 2017
Temperature: 8.0°C (46°F)
Dewpoint: -12.0°C (10°F) [RH = 23%]
Pressure (altimeter): 29.82 inches Hg (1009.9 mb)
Winds: from the S (180 degrees) at 5 MPH (4 knots; 2.1 m/s)
Visibility: 10 or more miles (16+ km)
Ceiling: at least 12,000 feet AGL
Clouds: sky clear below 12,000 feet AGL
Weather: automated observation with no human augmentation;
there may or may not be significant weather present at this time

METAR text: KMNH 182156Z AUTO 19003KT 10SM CLR 08/M12 A2983 RMK AO2
Conditions at: KMNH (MONUMENT/ELBERT , CO, US) observed 2156 UTC 18 January 2017
Temperature: 8.0°C (46°F)
Dewpoint: -12.0°C (10°F) [RH = 23%]
Pressure (altimeter): 29.83 inches Hg (1010.2 mb)
Winds: from the S (190 degrees) at 3 MPH (3 knots; 1.6 m/s)
Visibility: 10 or more miles (16+ km)
Ceiling: at least 12,000 feet AGL
Clouds: sky clear below 12,000 feet AGL
Weather: automated observation with no human augmentation;
there may or may not be significant weather present at this time

METAR text: KMNH 182136Z AUTO 19005KT 10SM CLR 08/M14 A2983 RMK AO2
Conditions at: KMNH (MONUMENT/ELBERT , CO, US) observed 2136 UTC 18 January 2017
Temperature: 8.0°C (46°F)
Dewpoint: -14.0°C (7°F) [RH = 19%]
Pressure (altimeter): 29.83 inches Hg (1010.2 mb)
Winds: from the S (190 degrees) at 6 MPH (5 knots; 2.6 m/s)
Visibility: 10 or more miles (16+ km)
Ceiling: at least 12,000 feet AGL
Clouds: sky clear below 12,000 feet AGL
Weather: automated observation with no human augmentation;
there may or may not be significant weather present at this time

METAR text: KMNH 182116Z AUTO 18003KT 10SM CLR 07/M13 A2983 RMK AO2
Conditions at: KMNH (MONUMENT/ELBERT , CO, US) observed 2116 UTC 18 January 2017
Temperature: 7.0°C (45°F)
Dewpoint: -13.0°C (9°F) [RH = 22%]
Pressure (altimeter): 29.83 inches Hg (1010.2 mb)
Winds: from the S (180 degrees) at 3 MPH (3 knots; 1.6 m/s)
Visibility: 10 or more miles (16+ km)
Ceiling: at least 12,000 feet AGL
Clouds: sky clear below 12,000 feet AGL
Weather: automated observation with no human augmentation;
there may or may not be significant weather present at this time

METAR text: KMNH 182056Z AUTO 16004KT 10SM CLR 07/M14 A2985 RMK AO2
Conditions at: KMNH (MONUMENT/ELBERT , CO, US) observed 2056 UTC 18 January 2017
Temperature: 7.0°C (45°F)
Dewpoint: -14.0°C (7°F) [RH = 21%]
Pressure (altimeter): 29.85 inches Hg (1010.9 mb)
Winds: from the SSE (160 degrees) at 5 MPH (4 knots; 2.1 m/s)
Visibility: 10 or more miles (16+ km)
Ceiling: at least 12,000 feet AGL
Clouds: sky clear below 12,000 feet AGL
Weather: automated observation with no human augmentation;
there may or may not be significant weather present at this time

METAR text: KMNH 182036Z AUTO 18004KT 10SM CLR 07/M15 A2985 RMK AO2
Conditions at: KMNH (MONUMENT/ELBERT , CO, US) observed 2036 UTC 18 January 2017
Temperature: 7.0°C (45°F)
Dewpoint: -15.0°C (5°F) [RH = 19%]
Pressure (altimeter): 29.85 inches Hg (1010.9 mb)
Winds: from the S (180 degrees) at 5 MPH (4 knots; 2.1 m/s)
Visibility: 10 or more miles (16+ km)
Ceiling: at least 12,000 feet AGL
Clouds: sky clear below 12,000 feet AGL
Weather: automated observation with no human augmentation;
there may or may not be significant weather present at this time

METAR text: KMNH 182016Z AUTO 18004KT 10SM CLR 07/M15 A2986 RMK AO2
Conditions at: KMNH (MONUMENT/ELBERT , CO, US) observed 2016 UTC 18 January 2017
Temperature: 7.0°C (45°F)
Dewpoint: -15.0°C (5°F) [RH = 19%]
Pressure (altimeter): 29.86 inches Hg (1011.3 mb)
Winds: from the S (180 degrees) at 5 MPH (4 knots; 2.1 m/s)
Visibility: 10 or more miles (16+ km)
Ceiling: at least 12,000 feet AGL
Clouds: sky clear below 12,000 feet AGL
Weather: automated observation with no human augmentation;
there may or may not be significant weather present at this time

METAR text: KMNH 181956Z AUTO 00000KT 10SM CLR 07/M16 A2987 RMK AO2
Conditions at: KMNH (MONUMENT/ELBERT , CO, US) observed 1956 UTC 18 January 2017
Temperature: 7.0°C (45°F)
Dewpoint: -16.0°C (3°F) [RH = 18%]
Pressure (altimeter): 29.87 inches Hg (1011.6 mb)
Winds: calm
Visibility: 10 or more miles (16+ km)
Ceiling: at least 12,000 feet AGL
Clouds: sky clear below 12,000 feet AGL
Weather: automated observation with no human augmentation;
there may or may not be significant weather present at this time

METAR text: KMNH 181936Z AUTO 00000KT 10SM CLR 07/M14 A2988 RMK AO2
Conditions at: KMNH (MONUMENT/ELBERT , CO, US) observed 1936 UTC 18 January 2017
Temperature: 7.0°C (45°F)
Dewpoint: -14.0°C (7°F) [RH = 21%]
Pressure (altimeter): 29.88 inches Hg (1011.9 mb)
Winds: calm
Visibility: 10 or more miles (16+ km)
Ceiling: at least 12,000 feet AGL
Clouds: sky clear below 12,000 feet AGL
Weather: automated observation with no human augmentation;
there may or may not be significant weather present at this time

METAR text: KMNH 181916Z AUTO 00000KT 10SM CLR 06/M15 A2989 RMK AO2
Conditions at: KMNH (MONUMENT/ELBERT , CO, US) observed 1916 UTC 18 January 2017
Temperature: 6.0°C (43°F)
Dewpoint: -15.0°C (5°F) [RH = 20%]
Pressure (altimeter): 29.89 inches Hg (1012.3 mb)
Winds: calm
Visibility: 10 or more miles (16+ km)
Ceiling: at least 12,000 feet AGL
Clouds: sky clear below 12,000 feet AGL
Weather: automated observation with no human augmentation;
there may or may not be significant weather present at this time

METAR text: KMNH 181856Z AUTO 00000KT 10SM CLR 06/M13 A2991 RMK AO2
Conditions at: KMNH (MONUMENT/ELBERT , CO, US) observed 1856 UTC 18 January 2017
Temperature: 6.0°C (43°F)
Dewpoint: -13.0°C (9°F) [RH = 24%]
Pressure (altimeter): 29.91 inches Hg (1013.0 mb)
Winds: calm
Visibility: 10 or more miles (16+ km)
Ceiling: at least 12,000 feet AGL
Clouds: sky clear below 12,000 feet AGL
Weather: automated observation with no human augmentation;
there may or may not be significant weather present at this time

METAR text: KMNH 181836Z AUTO 00000KT 10SM CLR 07/M14 A2992 RMK AO2
Conditions at: KMNH (MONUMENT/ELBERT , CO, US) observed 1836 UTC 18 January 2017
Temperature: 7.0°C (45°F)
Dewpoint: -14.0°C (7°F) [RH = 21%]
Pressure (altimeter): 29.92 inches Hg (1013.3 mb)
Winds: calm
Visibility: 10 or more miles (16+ km)
Ceiling: at least 12,000 feet AGL
Clouds: sky clear below 12,000 feet AGL
Weather: automated observation with no human augmentation;
there may or may not be significant weather present at this time

METAR text: KMNH 181816Z AUTO 27003KT 10SM CLR 06/M14 A2992 RMK AO2
Conditions at: KMNH (MONUMENT/ELBERT , CO, US) observed 1816 UTC 18 January 2017
Temperature: 6.0°C (43°F)
Dewpoint: -14.0°C (7°F) [RH = 22%]
Pressure (altimeter): 29.92 inches Hg (1013.3 mb)
Winds: from the W (270 degrees) at 3 MPH (3 knots; 1.6 m/s)
Visibility: 10 or more miles (16+ km)
Ceiling: at least 12,000 feet AGL
Clouds: sky clear below 12,000 feet AGL
Weather: automated observation with no human augmentation;
there may or may not be significant weather present at this time

METAR text: KMNH 181756Z AUTO 27003KT 10SM CLR 06/M13 A2993 RMK AO2
Conditions at: KMNH (MONUMENT/ELBERT , CO, US) observed 1756 UTC 18 January 2017
Temperature: 6.0°C (43°F)
Dewpoint: -13.0°C (9°F) [RH = 24%]
Pressure (altimeter): 29.93 inches Hg (1013.6 mb)
Winds: from the W (270 degrees) at 3 MPH (3 knots; 1.6 m/s)
Visibility: 10 or more miles (16+ km)
Ceiling: at least 12,000 feet AGL
Clouds: sky clear below 12,000 feet AGL
Weather: automated observation with no human augmentation;
there may or may not be significant weather present at this time

METAR text: KMNH 181735Z AUTO 28005KT 10SM CLR 06/M14 A2994 RMK AO2
Conditions at: KMNH (MONUMENT/ELBERT , CO, US) observed 1735 UTC 18 January 2017
Temperature: 6.0°C (43°F)
Dewpoint: -14.0°C (7°F) [RH = 22%]
Pressure (altimeter): 29.94 inches Hg (1014.0 mb)
Winds: from the W (280 degrees) at 6 MPH (5 knots; 2.6 m/s)
Visibility: 10 or more miles (16+ km)
Ceiling: at least 12,000 feet AGL
Clouds: sky clear below 12,000 feet AGL
Weather: automated observation with no human augmentation;
there may or may not be significant weather present at this time

METAR text: KMNH 181716Z AUTO 28003KT 10SM CLR 05/M12 A2995 RMK AO2
Conditions at: KMNH (MONUMENT/ELBERT , CO, US) observed 1716 UTC 18 January 2017
Temperature: 5.0°C (41°F)
Dewpoint: -12.0°C (10°F) [RH = 28%]
Pressure (altimeter): 29.95 inches Hg (1014.3 mb)
Winds: from the W (280 degrees) at 3 MPH (3 knots; 1.6 m/s)
Visibility: 10 or more miles (16+ km)
Ceiling: at least 12,000 feet AGL
Clouds: sky clear below 12,000 feet AGL
Weather: automated observation with no human augmentation;
there may or may not be significant weather present at this time

METAR text: KMNH 181655Z AUTO 26004KT 10SM CLR 03/M11 A2996 RMK AO2
Conditions at: KMNH (MONUMENT/ELBERT , CO, US) observed 1655 UTC 18 January 2017
Temperature: 3.0°C (37°F)
Dewpoint: -11.0°C (12°F) [RH = 35%]
Pressure (altimeter): 29.96 inches Hg (1014.6 mb)
Winds: from the W (260 degrees) at 5 MPH (4 knots; 2.1 m/s)
Visibility: 10 or more miles (16+ km)
Ceiling: at least 12,000 feet AGL
Clouds: sky clear below 12,000 feet AGL
Weather: automated observation with no human augmentation;
there may or may not be significant weather present at this time

METAR text: KMNH 181636Z AUTO 25005KT 10SM CLR 02/M10 A2996 RMK AO2
Conditions at: KMNH (MONUMENT/ELBERT , CO, US) observed 1636 UTC 18 January 2017
Temperature: 2.0°C (36°F)
Dewpoint: -10.0°C (14°F) [RH = 41%]
Pressure (altimeter): 29.96 inches Hg (1014.6 mb)
Winds: from the WSW (250 degrees) at 6 MPH (5 knots; 2.6 m/s)
Visibility: 10 or more miles (16+ km)
Ceiling: at least 12,000 feet AGL
Clouds: sky clear below 12,000 feet AGL
Weather: automated observation with no human augmentation;
there may or may not be significant weather present at this time

METAR text: KMNH 181616Z AUTO 10SM CLR 01/M11 A2996 RMK AO2
Conditions at: KMNH (MONUMENT/ELBERT , CO, US) observed 1616 UTC 18 January 2017
Temperature: 1.0°C (34°F)
Dewpoint: -11.0°C (12°F) [RH = 40%]
Pressure (altimeter): 29.96 inches Hg (1014.6 mb)
Winds: missing
Visibility: 10 or more miles (16+ km)
Ceiling: at least 12,000 feet AGL
Clouds: sky clear below 12,000 feet AGL
Weather: automated observation with no human augmentation;
there may or may not be significant weather present at this time

METAR text: KMNH 181556Z AUTO 27006KT 10SM CLR 00/M11 A2996 RMK AO2
Conditions at: KMNH (MONUMENT/ELBERT , CO, US) observed 1556 UTC 18 January 2017
Temperature: 0.0°C (32°F)
Dewpoint: -11.0°C (12°F) [RH = 43%]
Pressure (altimeter): 29.96 inches Hg (1014.6 mb)
Winds: from the W (270 degrees) at 7 MPH (6 knots; 3.1 m/s)
Visibility: 10 or more miles (16+ km)
Ceiling: at least 12,000 feet AGL
Clouds: sky clear below 12,000 feet AGL
Weather: automated observation with no human augmentation;
there may or may not be significant weather present at this time

METAR text: KMNH 181536Z AUTO 28003KT 10SM CLR 00/M12 A2996 RMK AO2
Conditions at: KMNH (MONUMENT/ELBERT , CO, US) observed 1536 UTC 18 January 2017
Temperature: 0.0°C (32°F)
Dewpoint: -12.0°C (10°F) [RH = 40%]
Pressure (altimeter): 29.96 inches Hg (1014.6 mb)
Winds: from the W (280 degrees) at 3 MPH (3 knots; 1.6 m/s)
Visibility: 10 or more miles (16+ km)
Ceiling: at least 12,000 feet AGL
Clouds: sky clear below 12,000 feet AGL
Weather: automated observation with no human augmentation;
there may or may not be significant weather present at this time

METAR text: KMNH 181516Z AUTO 26006KT 10SM CLR M04/M12 A2996 RMK AO2
Conditions at: KMNH (MONUMENT/ELBERT , CO, US) observed 1516 UTC 18 January 2017
Temperature: -4.0°C (25°F)
Dewpoint: -12.0°C (10°F) [RH = 54%]
Pressure (altimeter): 29.96 inches Hg (1014.6 mb)
Winds: from the W (260 degrees) at 7 MPH (6 knots; 3.1 m/s)
Visibility: 10 or more miles (16+ km)
Ceiling: at least 12,000 feet AGL
Clouds: sky clear below 12,000 feet AGL
Weather: automated observation with no human augmentation;
there may or may not be significant weather present at this time

METAR text: KMNH 181456Z AUTO 25006KT 10SM CLR M03/M13 A2996 RMK AO2
Conditions at: KMNH (MONUMENT/ELBERT , CO, US) observed 1456 UTC 18 January 2017
Temperature: -3.0°C (27°F)
Dewpoint: -13.0°C (9°F) [RH = 46%]
Pressure (altimeter): 29.96 inches Hg (1014.6 mb)
Winds: from the WSW (250 degrees) at 7 MPH (6 knots; 3.1 m/s)
Visibility: 10 or more miles (16+ km)
Ceiling: at least 12,000 feet AGL
Clouds: sky clear below 12,000 feet AGL
Weather: automated observation with no human augmentation;
there may or may not be significant weather present at this time

METAR text: KMNH 181435Z AUTO 24006KT 10SM CLR M07/M15 A2996 RMK AO2
Conditions at: KMNH (MONUMENT/ELBERT , CO, US) observed 1435 UTC 18 January 2017
Temperature: -7.0°C (19°F)
Dewpoint: -15.0°C (5°F) [RH = 53%]
Pressure (altimeter): 29.96 inches Hg (1014.6 mb)
Winds: from the WSW (240 degrees) at 7 MPH (6 knots; 3.1 m/s)
Visibility: 10 or more miles (16+ km)
Ceiling: at least 12,000 feet AGL
Clouds: sky clear below 12,000 feet AGL
Weather: automated observation with no human augmentation;
there may or may not be significant weather present at this time

METAR text: KMNH 181416Z AUTO 23006KT 10SM CLR M08/M15 A2997 RMK AO2
Conditions at: KMNH (MONUMENT/ELBERT , CO, US) observed 1416 UTC 18 January 2017
Temperature: -8.0°C (18°F)
Dewpoint: -15.0°C (5°F) [RH = 57%]
Pressure (altimeter): 29.97 inches Hg (1015.0 mb)
Winds: from the SW (230 degrees) at 7 MPH (6 knots; 3.1 m/s)
Visibility: 10 or more miles (16+ km)
Ceiling: at least 12,000 feet AGL
Clouds: sky clear below 12,000 feet AGL
Weather: automated observation with no human augmentation;
there may or may not be significant weather present at this time

METAR text: KMNH 181355Z AUTO 23006KT 10SM CLR M06/M14 A2998 RMK AO2
Conditions at: KMNH (MONUMENT/ELBERT , CO, US) observed 1355 UTC 18 January 2017
Temperature: -6.0°C (21°F)
Dewpoint: -14.0°C (7°F) [RH = 53%]
Pressure (altimeter): 29.98 inches Hg (1015.3 mb)
Winds: from the SW (230 degrees) at 7 MPH (6 knots; 3.1 m/s)
Visibility: 10 or more miles (16+ km)
Ceiling: at least 12,000 feet AGL
Clouds: sky clear below 12,000 feet AGL
Weather: automated observation with no human augmentation;
there may or may not be significant weather present at this time

METAR text: KMNH 181336Z AUTO 23006KT 10SM CLR M07/M15 A2998 RMK AO2
Conditions at: KMNH (MONUMENT/ELBERT , CO, US) observed 1336 UTC 18 January 2017
Temperature: -7.0°C (19°F)
Dewpoint: -15.0°C (5°F) [RH = 53%]
Pressure (altimeter): 29.98 inches Hg (1015.3 mb)
Winds: from the SW (230 degrees) at 7 MPH (6 knots; 3.1 m/s)
Visibility: 10 or more miles (16+ km)
Ceiling: at least 12,000 feet AGL
Clouds: sky clear below 12,000 feet AGL
Weather: automated observation with no human augmentation;
there may or may not be significant weather present at this time

METAR text: KMNH 181316Z AUTO 23006KT 10SM CLR M07/M15 A2998 RMK AO2
Conditions at: KMNH (MONUMENT/ELBERT , CO, US) observed 1316 UTC 18 January 2017
Temperature: -7.0°C (19°F)
Dewpoint: -15.0°C (5°F) [RH = 53%]
Pressure (altimeter): 29.98 inches Hg (1015.3 mb)
Winds: from the SW (230 degrees) at 7 MPH (6 knots; 3.1 m/s)
Visibility: 10 or more miles (16+ km)
Ceiling: at least 12,000 feet AGL
Clouds: sky clear below 12,000 feet AGL
Weather: automated observation with no human augmentation;
there may or may not be significant weather present at this time

METAR text: KMNH 181256Z AUTO 23006KT 10SM CLR M07/M14 A2998 RMK AO2
Conditions at: KMNH (MONUMENT/ELBERT , CO, US) observed 1256 UTC 18 January 2017
Temperature: -7.0°C (19°F)
Dewpoint: -14.0°C (7°F) [RH = 57%]
Pressure (altimeter): 29.98 inches Hg (1015.3 mb)
Winds: from the SW (230 degrees) at 7 MPH (6 knots; 3.1 m/s)
Visibility: 10 or more miles (16+ km)
Ceiling: at least 12,000 feet AGL
Clouds: sky clear below 12,000 feet AGL
Weather: automated observation with no human augmentation;
there may or may not be significant weather present at this time

METAR text: KMNH 181236Z AUTO 23005KT 10SM CLR M07/M14 A2997 RMK AO2
Conditions at: KMNH (MONUMENT/ELBERT , CO, US) observed 1236 UTC 18 January 2017
Temperature: -7.0°C (19°F)
Dewpoint: -14.0°C (7°F) [RH = 57%]
Pressure (altimeter): 29.97 inches Hg (1015.0 mb)
Winds: from the SW (230 degrees) at 6 MPH (5 knots; 2.6 m/s)
Visibility: 10 or more miles (16+ km)
Ceiling: at least 12,000 feet AGL
Clouds: sky clear below 12,000 feet AGL
Weather: automated observation with no human augmentation;
there may or may not be significant weather present at this time

METAR text: KMNH 181216Z AUTO 23005KT 10SM CLR M07/M13 A2997 RMK AO2
Conditions at: KMNH (MONUMENT/ELBERT , CO, US) observed 1216 UTC 18 January 2017
Temperature: -7.0°C (19°F)
Dewpoint: -13.0°C (9°F) [RH = 62%]
Pressure (altimeter): 29.97 inches Hg (1015.0 mb)
Winds: from the SW (230 degrees) at 6 MPH (5 knots; 2.6 m/s)
Visibility: 10 or more miles (16+ km)
Ceiling: at least 12,000 feet AGL
Clouds: sky clear below 12,000 feet AGL
Weather: automated observation with no human augmentation;
there may or may not be significant weather present at this time

METAR text: KMNH 181156Z AUTO 22006KT 10SM CLR M06/M13 A2996 RMK AO2
Conditions at: KMNH (MONUMENT/ELBERT , CO, US) observed 1156 UTC 18 January 2017
Temperature: -6.0°C (21°F)
Dewpoint: -13.0°C (9°F) [RH = 58%]
Pressure (altimeter): 29.96 inches Hg (1014.6 mb)
Winds: from the SW (220 degrees) at 7 MPH (6 knots; 3.1 m/s)
Visibility: 10 or more miles (16+ km)
Ceiling: at least 12,000 feet AGL
Clouds: sky clear below 12,000 feet AGL
Weather: automated observation with no human augmentation;
there may or may not be significant weather present at this time

METAR text: KMNH 181135Z AUTO 21008KT 10SM CLR M05/M12 A2997 RMK AO2
Conditions at: KMNH (MONUMENT/ELBERT , CO, US) observed 1135 UTC 18 January 2017
Temperature: -5.0°C (23°F)
Dewpoint: -12.0°C (10°F) [RH = 58%]
Pressure (altimeter): 29.97 inches Hg (1015.0 mb)
Winds: from the SSW (210 degrees) at 9 MPH (8 knots; 4.2 m/s)
Visibility: 10 or more miles (16+ km)
Ceiling: at least 12,000 feet AGL
Clouds: sky clear below 12,000 feet AGL
Weather: automated observation with no human augmentation;
there may or may not be significant weather present at this time

METAR text: KMNH 181116Z AUTO 20007KT 10SM CLR M06/M13 A2997 RMK AO2
Conditions at: KMNH (MONUMENT/ELBERT , CO, US) observed 1116 UTC 18 January 2017
Temperature: -6.0°C (21°F)
Dewpoint: -13.0°C (9°F) [RH = 58%]
Pressure (altimeter): 29.97 inches Hg (1015.0 mb)
Winds: from the SSW (200 degrees) at 8 MPH (7 knots; 3.6 m/s)
Visibility: 10 or more miles (16+ km)
Ceiling: at least 12,000 feet AGL
Clouds: sky clear below 12,000 feet AGL
Weather: automated observation with no human augmentation;
there may or may not be significant weather present at this time

METAR text: KMNH 181056Z AUTO 21007KT 10SM CLR M06/M13 A2997 RMK AO2
Conditions at: KMNH (MONUMENT/ELBERT , CO, US) observed 1056 UTC 18 January 2017
Temperature: -6.0°C (21°F)
Dewpoint: -13.0°C (9°F) [RH = 58%]
Pressure (altimeter): 29.97 inches Hg (1015.0 mb)
Winds: from the SSW (210 degrees) at 8 MPH (7 knots; 3.6 m/s)
Visibility: 10 or more miles (16+ km)
Ceiling: at least 12,000 feet AGL
Clouds: sky clear below 12,000 feet AGL
Weather: automated observation with no human augmentation;
there may or may not be significant weather present at this time

METAR text: KMNH 181036Z AUTO 20007KT 10SM CLR M06/M13 A2997 RMK AO2
Conditions at: KMNH (MONUMENT/ELBERT , CO, US) observed 1036 UTC 18 January 2017
Temperature: -6.0°C (21°F)
Dewpoint: -13.0°C (9°F) [RH = 58%]
Pressure (altimeter): 29.97 inches Hg (1015.0 mb)
Winds: from the SSW (200 degrees) at 8 MPH (7 knots; 3.6 m/s)
Visibility: 10 or more miles (16+ km)
Ceiling: at least 12,000 feet AGL
Clouds: sky clear below 12,000 feet AGL
Weather: automated observation with no human augmentation;
there may or may not be significant weather present at this time

METAR text: KMNH 181016Z AUTO 21009KT 10SM CLR M05/M13 A2998 RMK AO2
Conditions at: KMNH (MONUMENT/ELBERT , CO, US) observed 1016 UTC 18 January 2017
Temperature: -5.0°C (23°F)
Dewpoint: -13.0°C (9°F) [RH = 53%]
Pressure (altimeter): 29.98 inches Hg (1015.3 mb)
Winds: from the SSW (210 degrees) at 10 MPH (9 knots; 4.7 m/s)
Visibility: 10 or more miles (16+ km)
Ceiling: at least 12,000 feet AGL
Clouds: sky clear below 12,000 feet AGL
Weather: automated observation with no human augmentation;
there may or may not be significant weather present at this time

METAR text: KMNH 180956Z AUTO 21008KT 10SM CLR M06/M14 A2998 RMK AO2
Conditions at: KMNH (MONUMENT/ELBERT , CO, US) observed 0956 UTC 18 January 2017
Temperature: -6.0°C (21°F)
Dewpoint: -14.0°C (7°F) [RH = 53%]
Pressure (altimeter): 29.98 inches Hg (1015.3 mb)
Winds: from the SSW (210 degrees) at 9 MPH (8 knots; 4.2 m/s)
Visibility: 10 or more miles (16+ km)
Ceiling: at least 12,000 feet AGL
Clouds: sky clear below 12,000 feet AGL
Weather: automated observation with no human augmentation;
there may or may not be significant weather present at this time

METAR text: KMNH 180936Z AUTO 21008KT 10SM CLR M05/M15 A2999 RMK AO2
Conditions at: KMNH (MONUMENT/ELBERT , CO, US) observed 0936 UTC 18 January 2017
Temperature: -5.0°C (23°F)
Dewpoint: -15.0°C (5°F) [RH = 45%]
Pressure (altimeter): 29.99 inches Hg (1015.7 mb)
Winds: from the SSW (210 degrees) at 9 MPH (8 knots; 4.2 m/s)
Visibility: 10 or more miles (16+ km)
Ceiling: at least 12,000 feet AGL
Clouds: sky clear below 12,000 feet AGL
Weather: automated observation with no human augmentation;
there may or may not be significant weather present at this time

METAR text: KMNH 180916Z AUTO 21008KT 10SM CLR M05/M16 A3000 RMK AO2
Conditions at: KMNH (MONUMENT/ELBERT , CO, US) observed 0916 UTC 18 January 2017
Temperature: -5.0°C (23°F)
Dewpoint: -16.0°C (3°F) [RH = 42%]
Pressure (altimeter): 30.00 inches Hg (1016.0 mb)
Winds: from the SSW (210 degrees) at 9 MPH (8 knots; 4.2 m/s)
Visibility: 10 or more miles (16+ km)
Ceiling: at least 12,000 feet AGL
Clouds: sky clear below 12,000 feet AGL
Weather: automated observation with no human augmentation;
there may or may not be significant weather present at this time

METAR text: KMNH 180856Z AUTO 21008KT 10SM CLR M04/M15 A3001 RMK AO2
Conditions at: KMNH (MONUMENT/ELBERT , CO, US) observed 0856 UTC 18 January 2017
Temperature: -4.0°C (25°F)
Dewpoint: -15.0°C (5°F) [RH = 42%]
Pressure (altimeter): 30.01 inches Hg (1016.3 mb)
Winds: from the SSW (210 degrees) at 9 MPH (8 knots; 4.2 m/s)
Visibility: 10 or more miles (16+ km)
Ceiling: at least 12,000 feet AGL
Clouds: sky clear below 12,000 feet AGL
Weather: automated observation with no human augmentation;
there may or may not be significant weather present at this time

METAR text: KMNH 180836Z AUTO 21008KT 10SM CLR M04/M14 A3001 RMK AO2
Conditions at: KMNH (MONUMENT/ELBERT , CO, US) observed 0836 UTC 18 January 2017
Temperature: -4.0°C (25°F)
Dewpoint: -14.0°C (7°F) [RH = 46%]
Pressure (altimeter): 30.01 inches Hg (1016.3 mb)
Winds: from the SSW (210 degrees) at 9 MPH (8 knots; 4.2 m/s)
Visibility: 10 or more miles (16+ km)
Ceiling: at least 12,000 feet AGL
Clouds: sky clear below 12,000 feet AGL
Weather: automated observation with no human augmentation;
there may or may not be significant weather present at this time

METAR text: KMNH 180816Z AUTO 21008KT 10SM CLR M05/M12 A3001 RMK AO2
Conditions at: KMNH (MONUMENT/ELBERT , CO, US) observed 0816 UTC 18 January 2017
Temperature: -5.0°C (23°F)
Dewpoint: -12.0°C (10°F) [RH = 58%]
Pressure (altimeter): 30.01 inches Hg (1016.3 mb)
Winds: from the SSW (210 degrees) at 9 MPH (8 knots; 4.2 m/s)
Visibility: 10 or more miles (16+ km)
Ceiling: at least 12,000 feet AGL
Clouds: sky clear below 12,000 feet AGL
Weather: automated observation with no human augmentation;
there may or may not be significant weather present at this time

METAR text: KMNH 180756Z AUTO 21008KT 10SM CLR M05/M12 A3001 RMK AO2
Conditions at: KMNH (MONUMENT/ELBERT , CO, US) observed 0756 UTC 18 January 2017
Temperature: -5.0°C (23°F)
Dewpoint: -12.0°C (10°F) [RH = 58%]
Pressure (altimeter): 30.01 inches Hg (1016.3 mb)
Winds: from the SSW (210 degrees) at 9 MPH (8 knots; 4.2 m/s)
Visibility: 10 or more miles (16+ km)
Ceiling: at least 12,000 feet AGL
Clouds: sky clear below 12,000 feet AGL
Weather: automated observation with no human augmentation;
there may or may not be significant weather present at this time

METAR text: KMNH 180736Z AUTO 20008KT 10SM CLR M06/M13 A3003 RMK AO2
Conditions at: KMNH (MONUMENT/ELBERT , CO, US) observed 0736 UTC 18 January 2017
Temperature: -6.0°C (21°F)
Dewpoint: -13.0°C (9°F) [RH = 58%]
Pressure (altimeter): 30.03 inches Hg (1017.0 mb)
Winds: from the SSW (200 degrees) at 9 MPH (8 knots; 4.2 m/s)
Visibility: 10 or more miles (16+ km)
Ceiling: at least 12,000 feet AGL
Clouds: sky clear below 12,000 feet AGL
Weather: automated observation with no human augmentation;
there may or may not be significant weather present at this time

METAR text: KMNH 180714Z AUTO 21008KT 10SM CLR M06/M15 A3003 RMK AO2
Conditions at: KMNH (MONUMENT/ELBERT , CO, US) observed 0714 UTC 18 January 2017
Temperature: -6.0°C (21°F)
Dewpoint: -15.0°C (5°F) [RH = 49%]
Pressure (altimeter): 30.03 inches Hg (1017.0 mb)
Winds: from the SSW (210 degrees) at 9 MPH (8 knots; 4.2 m/s)
Visibility: 10 or more miles (16+ km)
Ceiling: at least 12,000 feet AGL
Clouds: sky clear below 12,000 feet AGL
Weather: automated observation with no human augmentation;
there may or may not be significant weather present at this time

METAR text: KMNH 180656Z AUTO 20008KT 10SM CLR M05/M16 A3004 RMK AO2
Conditions at: KMNH (MONUMENT/ELBERT , CO, US) observed 0656 UTC 18 January 2017
Temperature: -5.0°C (23°F)
Dewpoint: -16.0°C (3°F) [RH = 42%]
Pressure (altimeter): 30.04 inches Hg (1017.4 mb)
Winds: from the SSW (200 degrees) at 9 MPH (8 knots; 4.2 m/s)
Visibility: 10 or more miles (16+ km)
Ceiling: at least 12,000 feet AGL
Clouds: sky clear below 12,000 feet AGL
Weather: automated observation with no human augmentation;
there may or may not be significant weather present at this time

METAR text: KMNH 180636Z AUTO 18006KT 10SM CLR M06/M16 A3005 RMK AO2
Conditions at: KMNH (MONUMENT/ELBERT , CO, US) observed 0636 UTC 18 January 2017
Temperature: -6.0°C (21°F)
Dewpoint: -16.0°C (3°F) [RH = 45%]
Pressure (altimeter): 30.05 inches Hg (1017.7 mb)
Winds: from the S (180 degrees) at 7 MPH (6 knots; 3.1 m/s)
Visibility: 10 or more miles (16+ km)
Ceiling: at least 12,000 feet AGL
Clouds: sky clear below 12,000 feet AGL
Weather: automated observation with no human augmentation;
there may or may not be significant weather present at this time

METAR text: KMNH 180616Z AUTO 19006KT 10SM CLR M06/M15 A3005 RMK AO2
Conditions at: KMNH (MONUMENT/ELBERT , CO, US) observed 0616 UTC 18 January 2017
Temperature: -6.0°C (21°F)
Dewpoint: -15.0°C (5°F) [RH = 49%]
Pressure (altimeter): 30.05 inches Hg (1017.7 mb)
Winds: from the S (190 degrees) at 7 MPH (6 knots; 3.1 m/s)
Visibility: 10 or more miles (16+ km)
Ceiling: at least 12,000 feet AGL
Clouds: sky clear below 12,000 feet AGL
Weather: automated observation with no human augmentation;
there may or may not be significant weather present at this time

METAR text: KMNH 180555Z AUTO 20006KT 10SM CLR M05/M14 A3005 RMK AO2
Conditions at: KMNH (MONUMENT/ELBERT , CO, US) observed 0555 UTC 18 January 2017
Temperature: -5.0°C (23°F)
Dewpoint: -14.0°C (7°F) [RH = 49%]
Pressure (altimeter): 30.05 inches Hg (1017.7 mb)
Winds: from the SSW (200 degrees) at 7 MPH (6 knots; 3.1 m/s)
Visibility: 10 or more miles (16+ km)
Ceiling: at least 12,000 feet AGL
Clouds: sky clear below 12,000 feet AGL
Weather: automated observation with no human augmentation;
there may or may not be significant weather present at this time

METAR text: KMNH 180536Z AUTO 20008KT 10SM CLR M07/M13 A3006 RMK AO2
Conditions at: KMNH (MONUMENT/ELBERT , CO, US) observed 0536 UTC 18 January 2017
Temperature: -7.0°C (19°F)
Dewpoint: -13.0°C (9°F) [RH = 62%]
Pressure (altimeter): 30.06 inches Hg (1018.0 mb)
Winds: from the SSW (200 degrees) at 9 MPH (8 knots; 4.2 m/s)
Visibility: 10 or more miles (16+ km)
Ceiling: at least 12,000 feet AGL
Clouds: sky clear below 12,000 feet AGL
Weather: automated observation with no human augmentation;
there may or may not be significant weather present at this time

METAR text: KMNH 180515Z AUTO 22009KT 10SM CLR M05/M13 A3006 RMK AO2
Conditions at: KMNH (MONUMENT/ELBERT , CO, US) observed 0515 UTC 18 January 2017
Temperature: -5.0°C (23°F)
Dewpoint: -13.0°C (9°F) [RH = 53%]
Pressure (altimeter): 30.06 inches Hg (1018.0 mb)
Winds: from the SW (220 degrees) at 10 MPH (9 knots; 4.7 m/s)
Visibility: 10 or more miles (16+ km)
Ceiling: at least 12,000 feet AGL
Clouds: sky clear below 12,000 feet AGL
Weather: automated observation with no human augmentation;
there may or may not be significant weather present at this time

METAR text: KMNH 180456Z AUTO 21009KT 10SM CLR M06/M12 A3006 RMK AO2
Conditions at: KMNH (MONUMENT/ELBERT , CO, US) observed 0456 UTC 18 January 2017
Temperature: -6.0°C (21°F)
Dewpoint: -12.0°C (10°F) [RH = 62%]
Pressure (altimeter): 30.06 inches Hg (1018.0 mb)
Winds: from the SSW (210 degrees) at 10 MPH (9 knots; 4.7 m/s)
Visibility: 10 or more miles (16+ km)
Ceiling: at least 12,000 feet AGL
Clouds: sky clear below 12,000 feet AGL
Weather: automated observation with no human augmentation;
there may or may not be significant weather present at this time

METAR text: KMNH 180436Z AUTO 22008KT 10SM CLR M06/M12 A3006 RMK AO2
Conditions at: KMNH (MONUMENT/ELBERT , CO, US) observed 0436 UTC 18 January 2017
Temperature: -6.0°C (21°F)
Dewpoint: -12.0°C (10°F) [RH = 62%]
Pressure (altimeter): 30.06 inches Hg (1018.0 mb)
Winds: from the SW (220 degrees) at 9 MPH (8 knots; 4.2 m/s)
Visibility: 10 or more miles (16+ km)
Ceiling: at least 12,000 feet AGL
Clouds: sky clear below 12,000 feet AGL
Weather: automated observation with no human augmentation;
there may or may not be significant weather present at this time

METAR text: KMNH 180416Z AUTO 22008KT 10SM CLR M06/M12 A3006 RMK AO2
Conditions at: KMNH (MONUMENT/ELBERT , CO, US) observed 0416 UTC 18 January 2017
Temperature: -6.0°C (21°F)
Dewpoint: -12.0°C (10°F) [RH = 62%]
Pressure (altimeter): 30.06 inches Hg (1018.0 mb)
Winds: from the SW (220 degrees) at 9 MPH (8 knots; 4.2 m/s)
Visibility: 10 or more miles (16+ km)
Ceiling: at least 12,000 feet AGL
Clouds: sky clear below 12,000 feet AGL
Weather: automated observation with no human augmentation;
there may or may not be significant weather present at this time

METAR text: KMNH 180355Z AUTO 22007KT 10SM CLR M07/M12 A3006 RMK AO2
Conditions at: KMNH (MONUMENT/ELBERT , CO, US) observed 0355 UTC 18 January 2017
Temperature: -7.0°C (19°F)
Dewpoint: -12.0°C (10°F) [RH = 67%]
Pressure (altimeter): 30.06 inches Hg (1018.0 mb)
Winds: from the SW (220 degrees) at 8 MPH (7 knots; 3.6 m/s)
Visibility: 10 or more miles (16+ km)
Ceiling: at least 12,000 feet AGL
Clouds: sky clear below 12,000 feet AGL
Weather: automated observation with no human augmentation;
there may or may not be significant weather present at this time

METAR text: KMNH 180335Z AUTO 21008KT 10SM CLR M07/M12 A3006 RMK AO2
Conditions at: KMNH (MONUMENT/ELBERT , CO, US) observed 0335 UTC 18 January 2017
Temperature: -7.0°C (19°F)
Dewpoint: -12.0°C (10°F) [RH = 67%]
Pressure (altimeter): 30.06 inches Hg (1018.0 mb)
Winds: from the SSW (210 degrees) at 9 MPH (8 knots; 4.2 m/s)
Visibility: 10 or more miles (16+ km)
Ceiling: at least 12,000 feet AGL
Clouds: sky clear below 12,000 feet AGL
Weather: automated observation with no human augmentation;
there may or may not be significant weather present at this time

METAR text: KMNH 180316Z AUTO 20007KT 10SM CLR M08/M12 A3005 RMK AO2
Conditions at: KMNH (MONUMENT/ELBERT , CO, US) observed 0316 UTC 18 January 2017
Temperature: -8.0°C (18°F)
Dewpoint: -12.0°C (10°F) [RH = 73%]
Pressure (altimeter): 30.05 inches Hg (1017.7 mb)
Winds: from the SSW (200 degrees) at 8 MPH (7 knots; 3.6 m/s)
Visibility: 10 or more miles (16+ km)
Ceiling: at least 12,000 feet AGL
Clouds: sky clear below 12,000 feet AGL
Weather: automated observation with no human augmentation;
there may or may not be significant weather present at this time

METAR text: KMNH 180256Z AUTO 24004KT 10SM CLR M07/M12 A3005 RMK AO2
Conditions at: KMNH (MONUMENT/ELBERT , CO, US) observed 0256 UTC 18 January 2017
Temperature: -7.0°C (19°F)
Dewpoint: -12.0°C (10°F) [RH = 67%]
Pressure (altimeter): 30.05 inches Hg (1017.7 mb)
Winds: from the WSW (240 degrees) at 5 MPH (4 knots; 2.1 m/s)
Visibility: 10 or more miles (16+ km)
Ceiling: at least 12,000 feet AGL
Clouds: sky clear below 12,000 feet AGL
Weather: automated observation with no human augmentation;
there may or may not be significant weather present at this time

METAR text: KMNH 180236Z AUTO 24006KT 10SM CLR M07/M11 A3005 RMK AO2
Conditions at: KMNH (MONUMENT/ELBERT , CO, US) observed 0236 UTC 18 January 2017
Temperature: -7.0°C (19°F)
Dewpoint: -11.0°C (12°F) [RH = 73%]
Pressure (altimeter): 30.05 inches Hg (1017.7 mb)
Winds: from the WSW (240 degrees) at 7 MPH (6 knots; 3.1 m/s)
Visibility: 10 or more miles (16+ km)
Ceiling: at least 12,000 feet AGL
Clouds: sky clear below 12,000 feet AGL
Weather: automated observation with no human augmentation;
there may or may not be significant weather present at this time

METAR text: KMNH 180216Z AUTO 23005KT 10SM CLR M07/M12 A3005 RMK AO2
Conditions at: KMNH (MONUMENT/ELBERT , CO, US) observed 0216 UTC 18 January 2017
Temperature: -7.0°C (19°F)
Dewpoint: -12.0°C (10°F) [RH = 67%]
Pressure (altimeter): 30.05 inches Hg (1017.7 mb)
Winds: from the SW (230 degrees) at 6 MPH (5 knots; 2.6 m/s)
Visibility: 10 or more miles (16+ km)
Ceiling: at least 12,000 feet AGL
Clouds: sky clear below 12,000 feet AGL
Weather: automated observation with no human augmentation;
there may or may not be significant weather present at this time

METAR text: KMNH 180156Z AUTO 24003KT 10SM CLR M06/M12 A3005 RMK AO2
Conditions at: KMNH (MONUMENT/ELBERT , CO, US) observed 0156 UTC 18 January 2017
Temperature: -6.0°C (21°F)
Dewpoint: -12.0°C (10°F) [RH = 62%]
Pressure (altimeter): 30.05 inches Hg (1017.7 mb)
Winds: from the WSW (240 degrees) at 3 MPH (3 knots; 1.6 m/s)
Visibility: 10 or more miles (16+ km)
Ceiling: at least 12,000 feet AGL
Clouds: sky clear below 12,000 feet AGL
Weather: automated observation with no human augmentation;
there may or may not be significant weather present at this time

METAR text: KMNH 180136Z AUTO 00000KT 10SM CLR M04/M11 A3006 RMK AO2
Conditions at: KMNH (MONUMENT/ELBERT , CO, US) observed 0136 UTC 18 January 2017
Temperature: -4.0°C (25°F)
Dewpoint: -11.0°C (12°F) [RH = 58%]
Pressure (altimeter): 30.06 inches Hg (1018.0 mb)
Winds: calm
Visibility: 10 or more miles (16+ km)
Ceiling: at least 12,000 feet AGL
Clouds: sky clear below 12,000 feet AGL
Weather: automated observation with no human augmentation;
there may or may not be significant weather present at this time

METAR text: KMNH 180116Z AUTO 00000KT 10SM CLR M04/M10 A3006 RMK AO2
Conditions at: KMNH (MONUMENT/ELBERT , CO, US) observed 0116 UTC 18 January 2017
Temperature: -4.0°C (25°F)
Dewpoint: -10.0°C (14°F) [RH = 63%]
Pressure (altimeter): 30.06 inches Hg (1018.0 mb)
Winds: calm
Visibility: 10 or more miles (16+ km)
Ceiling: at least 12,000 feet AGL
Clouds: sky clear below 12,000 feet AGL
Weather: automated observation with no human augmentation;
there may or may not be significant weather present at this time

METAR text: KMNH 180056Z AUTO 00000KT 10SM CLR M03/M11 A3006 RMK AO2
Conditions at: KMNH (MONUMENT/ELBERT , CO, US) observed 0056 UTC 18 January 2017
Temperature: -3.0°C (27°F)
Dewpoint: -11.0°C (12°F) [RH = 54%]
Pressure (altimeter): 30.06 inches Hg (1018.0 mb)
Winds: calm
Visibility: 10 or more miles (16+ km)
Ceiling: at least 12,000 feet AGL
Clouds: sky clear below 12,000 feet AGL
Weather: automated observation with no human augmentation;
there may or may not be significant weather present at this time

METAR text: KMNH 180036Z AUTO 00000KT 10SM CLR 00/M11 A3005 RMK AO2
Conditions at: KMNH (MONUMENT/ELBERT , CO, US) observed 0036 UTC 18 January 2017
Temperature: 0.0°C (32°F)
Dewpoint: -11.0°C (12°F) [RH = 43%]
Pressure (altimeter): 30.05 inches Hg (1017.7 mb)
Winds: calm
Visibility: 10 or more miles (16+ km)
Ceiling: at least 12,000 feet AGL
Clouds: sky clear below 12,000 feet AGL
Weather: automated observation with no human augmentation;
there may or may not be significant weather present at this time

METAR text: KMNH 180015Z AUTO 10003KT 10SM CLR 00/M10 A3005 RMK AO2
Conditions at: KMNH (MONUMENT/ELBERT , CO, US) observed 0015 UTC 18 January 2017
Temperature: 0.0°C (32°F)
Dewpoint: -10.0°C (14°F) [RH = 47%]
Pressure (altimeter): 30.05 inches Hg (1017.7 mb)
Winds: from the E (100 degrees) at 3 MPH (3 knots; 1.6 m/s)
Visibility: 10 or more miles (16+ km)
Ceiling: at least 12,000 feet AGL
Clouds: sky clear below 12,000 feet AGL
Weather: automated observation with no human augmentation;
there may or may not be significant weather present at this time

METAR text: KMNH 172355Z AUTO 08003KT 10SM CLR 01/M10 A3005 RMK AO2
Conditions at: KMNH (MONUMENT/ELBERT , CO, US) observed 2355 UTC 17 January 2017
Temperature: 1.0°C (34°F)
Dewpoint: -10.0°C (14°F) [RH = 44%]
Pressure (altimeter): 30.05 inches Hg (1017.7 mb)
Winds: from the E (80 degrees) at 3 MPH (3 knots; 1.6 m/s)
Visibility: 10 or more miles (16+ km)
Ceiling: at least 12,000 feet AGL
Clouds: sky clear below 12,000 feet AGL
Weather: automated observation with no human augmentation;
there may or may not be significant weather present at this time

METAR text: KMNH 172335Z AUTO 06003KT 10SM CLR 03/M10 A3004 RMK AO2
Conditions at: KMNH (MONUMENT/ELBERT , CO, US) observed 2335 UTC 17 January 2017
Temperature: 3.0°C (37°F)
Dewpoint: -10.0°C (14°F) [RH = 38%]
Pressure (altimeter): 30.04 inches Hg (1017.4 mb)
Winds: from the ENE (60 degrees) at 3 MPH (3 knots; 1.6 m/s)
Visibility: 10 or more miles (16+ km)
Ceiling: at least 12,000 feet AGL
Clouds: sky clear below 12,000 feet AGL
Weather: automated observation with no human augmentation;
there may or may not be significant weather present at this time

METAR text: KMNH 172316Z AUTO 04004KT 10SM CLR 03/M10 A3004 RMK AO2
Conditions at: KMNH (MONUMENT/ELBERT , CO, US) observed 2316 UTC 17 January 2017
Temperature: 3.0°C (37°F)
Dewpoint: -10.0°C (14°F) [RH = 38%]
Pressure (altimeter): 30.04 inches Hg (1017.4 mb)
Winds: from the NE (40 degrees) at 5 MPH (4 knots; 2.1 m/s)
Visibility: 10 or more miles (16+ km)
Ceiling: at least 12,000 feet AGL
Clouds: sky clear below 12,000 feet AGL
Weather: automated observation with no human augmentation;
there may or may not be significant weather present at this time

METAR text: KMNH 172255Z AUTO 08003KT 10SM CLR 05/M10 A3003 RMK AO2
Conditions at: KMNH (MONUMENT/ELBERT , CO, US) observed 2255 UTC 17 January 2017
Temperature: 5.0°C (41°F)
Dewpoint: -10.0°C (14°F) [RH = 33%]
Pressure (altimeter): 30.03 inches Hg (1017.0 mb)
Winds: from the E (80 degrees) at 3 MPH (3 knots; 1.6 m/s)
Visibility: 10 or more miles (16+ km)
Ceiling: at least 12,000 feet AGL
Clouds: sky clear below 12,000 feet AGL
Weather: automated observation with no human augmentation;
there may or may not be significant weather present at this time

METAR text: KMNH 172235Z AUTO 07003KT 10SM CLR 05/M11 A3003 RMK AO2
Conditions at: KMNH (MONUMENT/ELBERT , CO, US) observed 2235 UTC 17 January 2017
Temperature: 5.0°C (41°F)
Dewpoint: -11.0°C (12°F) [RH = 30%]
Pressure (altimeter): 30.03 inches Hg (1017.0 mb)
Winds: from the ENE (70 degrees) at 3 MPH (3 knots; 1.6 m/s)
Visibility: 10 or more miles (16+ km)
Ceiling: at least 12,000 feet AGL
Clouds: sky clear below 12,000 feet AGL
Weather: automated observation with no human augmentation;
there may or may not be significant weather present at this time

METAR text: KMNH 172215Z AUTO 00000KT 10SM CLR 06/M13 A3002 RMK AO2
Conditions at: KMNH (MONUMENT/ELBERT , CO, US) observed 2215 UTC 17 January 2017
Temperature: 6.0°C (43°F)
Dewpoint: -13.0°C (9°F) [RH = 24%]
Pressure (altimeter): 30.02 inches Hg (1016.7 mb)
Winds: calm
Visibility: 10 or more miles (16+ km)
Ceiling: at least 12,000 feet AGL
Clouds: sky clear below 12,000 feet AGL
Weather: automated observation with no human augmentation;
there may or may not be significant weather present at this time

METAR text: KMNH 172156Z AUTO 00000KT 10SM CLR 06/M12 A3002 RMK AO2
Conditions at: KMNH (MONUMENT/ELBERT , CO, US) observed 2156 UTC 17 January 2017
Temperature: 6.0°C (43°F)
Dewpoint: -12.0°C (10°F) [RH = 26%]
Pressure (altimeter): 30.02 inches Hg (1016.7 mb)
Winds: calm
Visibility: 10 or more miles (16+ km)
Ceiling: at least 12,000 feet AGL
Clouds: sky clear below 12,000 feet AGL
Weather: automated observation with no human augmentation;
there may or may not be significant weather present at this time

METAR text: KMNH 172136Z AUTO 00000KT 10SM CLR 06/M15 A3001 RMK AO2
Conditions at: KMNH (MONUMENT/ELBERT , CO, US) observed 2136 UTC 17 January 2017
Temperature: 6.0°C (43°F)
Dewpoint: -15.0°C (5°F) [RH = 20%]
Pressure (altimeter): 30.01 inches Hg (1016.3 mb)
Winds: calm
Visibility: 10 or more miles (16+ km)
Ceiling: at least 12,000 feet AGL
Clouds: sky clear below 12,000 feet AGL
Weather: automated observation with no human augmentation;
there may or may not be significant weather present at this time

METAR text: KMNH 172116Z AUTO 00000KT 10SM CLR 06/M17 A3001 RMK AO2 LTG DSNT S
Conditions at: KMNH (MONUMENT/ELBERT , CO, US) observed 2116 UTC 17 January 2017
Temperature: 6.0°C (43°F)
Dewpoint: -17.0°C (1°F) [RH = 17%]
Pressure (altimeter): 30.01 inches Hg (1016.3 mb)
Winds: calm
Visibility: 10 or more miles (16+ km)
Ceiling: at least 12,000 feet AGL
Clouds: sky clear below 12,000 feet AGL
Weather: automated observation with no human augmentation;
there may or may not be significant weather present at this time

METAR text: KMNH 172056Z AUTO 00000KT 10SM CLR 06/M13 A3001 RMK AO2
Conditions at: KMNH (MONUMENT/ELBERT , CO, US) observed 2056 UTC 17 January 2017
Temperature: 6.0°C (43°F)
Dewpoint: -13.0°C (9°F) [RH = 24%]
Pressure (altimeter): 30.01 inches Hg (1016.3 mb)
Winds: calm
Visibility: 10 or more miles (16+ km)
Ceiling: at least 12,000 feet AGL
Clouds: sky clear below 12,000 feet AGL
Weather: automated observation with no human augmentation;
there may or may not be significant weather present at this time

METAR text: KMNH 172035Z AUTO 00000KT 10SM CLR 06/M14 A3001 RMK AO2
Conditions at: KMNH (MONUMENT/ELBERT , CO, US) observed 2035 UTC 17 January 2017
Temperature: 6.0°C (43°F)
Dewpoint: -14.0°C (7°F) [RH = 22%]
Pressure (altimeter): 30.01 inches Hg (1016.3 mb)
Winds: calm
Visibility: 10 or more miles (16+ km)
Ceiling: at least 12,000 feet AGL
Clouds: sky clear below 12,000 feet AGL
Weather: automated observation with no human augmentation;
there may or may not be significant weather present at this time

METAR text: KMNH 172016Z AUTO 00000KT 10SM CLR 06/M16 A3001 RMK AO2 LTG DSNT S
Conditions at: KMNH (MONUMENT/ELBERT , CO, US) observed 2016 UTC 17 January 2017
Temperature: 6.0°C (43°F)
Dewpoint: -16.0°C (3°F) [RH = 19%]
Pressure (altimeter): 30.01 inches Hg (1016.3 mb)
Winds: calm
Visibility: 10 or more miles (16+ km)
Ceiling: at least 12,000 feet AGL
Clouds: sky clear below 12,000 feet AGL
Weather: automated observation with no human augmentation;
there may or may not be significant weather present at this time

METAR text: KMNH 171955Z AUTO 00000KT 10SM CLR 06/M06 A3002 RMK AO2
Conditions at: KMNH (MONUMENT/ELBERT , CO, US) observed 1955 UTC 17 January 2017
Temperature: 6.0°C (43°F)
Dewpoint: -6.0°C (21°F) [RH = 42%]
Pressure (altimeter): 30.02 inches Hg (1016.7 mb)
Winds: calm
Visibility: 10 or more miles (16+ km)
Ceiling: at least 12,000 feet AGL
Clouds: sky clear below 12,000 feet AGL
Weather: automated observation with no human augmentation;
there may or may not be significant weather present at this time

METAR text: KMNH 171936Z AUTO 25003KT 10SM CLR 05/M05 A3003 RMK AO2
Conditions at: KMNH (MONUMENT/ELBERT , CO, US) observed 1936 UTC 17 January 2017
Temperature: 5.0°C (41°F)
Dewpoint: -5.0°C (23°F) [RH = 48%]
Pressure (altimeter): 30.03 inches Hg (1017.0 mb)
Winds: from the WSW (250 degrees) at 3 MPH (3 knots; 1.6 m/s)
Visibility: 10 or more miles (16+ km)
Ceiling: at least 12,000 feet AGL
Clouds: sky clear below 12,000 feet AGL
Weather: automated observation with no human augmentation;
there may or may not be significant weather present at this time

METAR text: KMNH 171916Z AUTO 26004KT 10SM CLR 05/M04 A3004 RMK AO2
Conditions at: KMNH (MONUMENT/ELBERT , CO, US) observed 1916 UTC 17 January 2017
Temperature: 5.0°C (41°F)
Dewpoint: -4.0°C (25°F) [RH = 52%]
Pressure (altimeter): 30.04 inches Hg (1017.4 mb)
Winds: from the W (260 degrees) at 5 MPH (4 knots; 2.1 m/s)
Visibility: 10 or more miles (16+ km)
Ceiling: at least 12,000 feet AGL
Clouds: sky clear below 12,000 feet AGL
Weather: automated observation with no human augmentation;
there may or may not be significant weather present at this time

METAR text: KMNH 171856Z AUTO 26004KT 10SM CLR 04/M03 A3004 RMK AO2
Conditions at: KMNH (MONUMENT/ELBERT , CO, US) observed 1856 UTC 17 January 2017
Temperature: 4.0°C (39°F)
Dewpoint: -3.0°C (27°F) [RH = 60%]
Pressure (altimeter): 30.04 inches Hg (1017.4 mb)
Winds: from the W (260 degrees) at 5 MPH (4 knots; 2.1 m/s)
Visibility: 10 or more miles (16+ km)
Ceiling: at least 12,000 feet AGL
Clouds: sky clear below 12,000 feet AGL
Weather: automated observation with no human augmentation;
there may or may not be significant weather present at this time

METAR text: KMNH 171836Z AUTO 25005KT 10SM CLR 03/M02 A3005 RMK AO2
Conditions at: KMNH (MONUMENT/ELBERT , CO, US) observed 1836 UTC 17 January 2017
Temperature: 3.0°C (37°F)
Dewpoint: -2.0°C (28°F) [RH = 70%]
Pressure (altimeter): 30.05 inches Hg (1017.7 mb)
Winds: from the WSW (250 degrees) at 6 MPH (5 knots; 2.6 m/s)
Visibility: 10 or more miles (16+ km)
Ceiling: at least 12,000 feet AGL
Clouds: sky clear below 12,000 feet AGL
Weather: automated observation with no human augmentation;
there may or may not be significant weather present at this time

METAR text: KMNH 171815Z AUTO 23005KT 10SM CLR 02/M01 A3006 RMK AO2
Conditions at: KMNH (MONUMENT/ELBERT , CO, US) observed 1815 UTC 17 January 2017
Temperature: 2.0°C (36°F)
Dewpoint: -1.0°C (30°F) [RH = 80%]
Pressure (altimeter): 30.06 inches Hg (1018.0 mb)
Winds: from the SW (230 degrees) at 6 MPH (5 knots; 2.6 m/s)
Visibility: 10 or more miles (16+ km)
Ceiling: at least 12,000 feet AGL
Clouds: sky clear below 12,000 feet AGL
Weather: automated observation with no human augmentation;
there may or may not be significant weather present at this time

METAR text: KMNH 171756Z AUTO 22004KT 10SM CLR 00/M02 A3007 RMK AO2
Conditions at: KMNH (MONUMENT/ELBERT , CO, US) observed 1756 UTC 17 January 2017
Temperature: 0.0°C (32°F)
Dewpoint: -2.0°C (28°F) [RH = 86%]
Pressure (altimeter): 30.07 inches Hg (1018.4 mb)
Winds: from the SW (220 degrees) at 5 MPH (4 knots; 2.1 m/s)
Visibility: 10 or more miles (16+ km)
Ceiling: at least 12,000 feet AGL
Clouds: sky clear below 12,000 feet AGL
Weather: automated observation with no human augmentation;
there may or may not be significant weather present at this time

METAR text: KMNH 171736Z AUTO 21003KT 10SM CLR 00/M02 A3007 RMK AO2
Conditions at: KMNH (MONUMENT/ELBERT , CO, US) observed 1736 UTC 17 January 2017
Temperature: 0.0°C (32°F)
Dewpoint: -2.0°C (28°F) [RH = 86%]
Pressure (altimeter): 30.07 inches Hg (1018.4 mb)
Winds: from the SSW (210 degrees) at 3 MPH (3 knots; 1.6 m/s)
Visibility: 10 or more miles (16+ km)
Ceiling: at least 12,000 feet AGL
Clouds: sky clear below 12,000 feet AGL
Weather: automated observation with no human augmentation;
there may or may not be significant weather present at this time

METAR text: KMNH 171715Z AUTO 22003KT 10SM CLR M01/M02 A3008 RMK AO2
Conditions at: KMNH (MONUMENT/ELBERT , CO, US) observed 1715 UTC 17 January 2017
Temperature: -1.0°C (30°F)
Dewpoint: -2.0°C (28°F) [RH = 93%]
Pressure (altimeter): 30.08 inches Hg (1018.7 mb)
Winds: from the SW (220 degrees) at 3 MPH (3 knots; 1.6 m/s)
Visibility: 10 or more miles (16+ km)
Ceiling: at least 12,000 feet AGL
Clouds: sky clear below 12,000 feet AGL
Weather: automated observation with no human augmentation;
there may or may not be significant weather present at this time

METAR text: KMNH 171656Z AUTO 21005KT 10SM CLR M02/M03 A3007 RMK AO2
Conditions at: KMNH (MONUMENT/ELBERT , CO, US) observed 1656 UTC 17 January 2017
Temperature: -2.0°C (28°F)
Dewpoint: -3.0°C (27°F) [RH = 93%]
Pressure (altimeter): 30.07 inches Hg (1018.4 mb)
Winds: from the SSW (210 degrees) at 6 MPH (5 knots; 2.6 m/s)
Visibility: 10 or more miles (16+ km)
Ceiling: at least 12,000 feet AGL
Clouds: sky clear below 12,000 feet AGL
Weather: automated observation with no human augmentation;
there may or may not be significant weather present at this time

METAR text: KMNH 171636Z AUTO 24004KT 10SM CLR M02/M03 A3007 RMK AO2
Conditions at: KMNH (MONUMENT/ELBERT , CO, US) observed 1636 UTC 17 January 2017
Temperature: -2.0°C (28°F)
Dewpoint: -3.0°C (27°F) [RH = 93%]
Pressure (altimeter): 30.07 inches Hg (1018.4 mb)
Winds: from the WSW (240 degrees) at 5 MPH (4 knots; 2.1 m/s)
Visibility: 10 or more miles (16+ km)
Ceiling: at least 12,000 feet AGL
Clouds: sky clear below 12,000 feet AGL
Weather: automated observation with no human augmentation;
there may or may not be significant weather present at this time